Time;durP1;ratioP1;P1;durP2;ratioP2;P2;SDS_P1;SDS_P2;PMS_P1;PMS_P2;Temp;Humidity;BMP_temperature;BMP_pressure;BME280_temperature;BME280_humidity;BME280_pressure;Samples;Min_cycle;Max_cycle;Signal;HPM_P1;HPM_P2
2023/03/31 00:00:49;;;;;;;17.10;8.07;;;10.30;99.90;;;;;;4972701;28;20050;-81
2023/03/31 00:03:20;;;;;;;12.48;7.15;;;10.40;99.90;;;;;;4990049;28;20058;-81
2023/03/31 00:05:52;;;;;;;13.88;7.43;;;10.30;99.90;;;;;;4975370;28;20051;-82
2023/03/31 00:08:20;;;;;;;15.48;7.70;;;10.30;99.90;;;;;;4973734;28;20046;-81
2023/03/31 00:10:47;;;;;;;13.05;7.45;;;10.40;99.90;;;;;;4969330;28;20769;-80
2023/03/31 00:13:16;;;;;;;16.88;8.45;;;10.30;99.90;;;;;;4973414;28;20054;-81
2023/03/31 00:15:43;;;;;;;14.80;7.85;;;10.30;99.90;;;;;;4977785;28;20421;-81
2023/03/31 00:18:10;;;;;;;13.77;8.10;;;10.30;99.90;;;;;;4967106;28;21844;-81
2023/03/31 00:20:41;;;;;;;12.90;7.25;;;10.30;99.90;;;;;;4972200;28;20043;-81
2023/03/31 00:23:09;;;;;;;15.27;8.10;;;10.30;99.90;;;;;;4988568;28;20070;-81
2023/03/31 00:25:40;;;;;;;17.20;8.25;;;10.30;99.90;;;;;;4975083;28;20046;-81
2023/03/31 00:28:09;;;;;;;16.63;8.55;;;10.30;99.90;;;;;;4974004;28;20069;-81
2023/03/31 00:30:36;;;;;;;13.30;7.60;;;10.20;99.90;;;;;;4969713;28;20972;-81
2023/03/31 00:33:04;;;;;;;12.35;7.82;;;10.30;99.90;;;;;;4972094;28;20050;-82
2023/03/31 00:35:34;;;;;;;15.30;7.72;;;10.30;99.90;;;;;;4972335;28;20054;-81
2023/03/31 00:38:01;;;;;;;15.55;7.93;;;10.30;99.90;;;;;;4989499;28;20038;-80
2023/03/31 00:40:28;;;;;;;13.00;7.47;;;10.30;99.90;;;;;;4986594;28;20070;-80
2023/03/31 00:42:55;;;;;;;14.50;7.30;;;10.30;99.90;;;;;;4972191;28;20054;-81
2023/03/31 00:45:26;;;;;;;16.20;8.45;;;10.20;99.90;;;;;;4970245;28;20058;-81
2023/03/31 00:48:02;;;;;;;15.60;8.77;;;10.20;99.90;;;;;;4970486;28;20465;-79
2023/03/31 00:50:40;;;;;;;15.82;8.80;;;10.20;99.90;;;;;;4986545;28;20046;-79
2023/03/31 00:53:11;;;;;;;15.00;8.45;;;10.20;99.90;;;;;;4972876;28;20058;-80
2023/03/31 00:55:47;;;;;;;15.50;8.30;;;10.10;99.90;;;;;;4971305;28;20054;-80
2023/03/31 00:58:19;;;;;;;16.35;8.63;;;10.10;99.90;;;;;;4987659;28;20054;-80
2023/03/31 01:00:51;;;;;;;14.50;8.43;;;10.10;99.90;;;;;;4975621;28;20061;-80
2023/03/31 01:03:21;;;;;;;;;;;10.00;99.90;;;;;;4968001;28;20050;-80
2023/03/31 01:05:54;;;;;;;21.05;10.70;;;10.00;99.90;;;;;;4990435;28;20397;-81
2023/03/31 01:08:23;;;;;;;;;;;10.00;99.90;;;;;;4971184;28;20046;-80
2023/03/31 01:10:53;;;;;;;21.55;10.70;;;10.00;99.90;;;;;;4975349;28;19921;-81
2023/03/31 01:13:22;;;;;;;20.35;9.98;;;10.00;99.90;;;;;;4994719;28;20042;-81
2023/03/31 01:15:50;;;;;;;17.58;9.88;;;9.90;99.90;;;;;;4977621;28;20053;-81
2023/03/31 01:18:20;;;;;;;20.90;7.88;;;9.90;99.90;;;;;;4974443;28;20070;-81
2023/03/31 01:21:06;;;;;;;17.40;8.27;;;9.90;99.90;;;;;;4989248;28;20138;-80
2023/03/31 01:24:04;;;;;;;16.23;7.82;;;9.90;99.90;;;;;;4976748;28;20085;-81
2023/03/31 01:26:50;;;;;;;18.10;8.40;;;9.90;99.90;;;;;;4970203;28;20051;-81
2023/03/31 01:29:46;;;;;;;13.45;7.90;;;9.80;99.90;;;;;;4976795;28;20066;-80
2023/03/31 01:32:38;;;;;;;16.15;8.88;;;9.80;99.90;;;;;;4986578;28;20070;-80
2023/03/31 01:35:29;;;;;;;17.38;8.05;;;9.80;99.90;;;;;;4975277;28;20046;-81
2023/03/31 01:38:09;;;;;;;20.42;8.32;;;9.80;99.90;;;;;;4999825;28;20042;-81
2023/03/31 01:40:54;;;;;;;15.88;8.23;;;9.80;99.90;;;;;;4992511;28;20153;-81
2023/03/31 01:43:37;;;;;;;16.02;8.85;;;9.70;99.90;;;;;;4994655;28;20098;-81
2023/03/31 01:46:27;;;;;;;16.60;8.35;;;9.70;99.90;;;;;;4991483;28;20062;-81
2023/03/31 01:49:14;;;;;;;19.27;8.40;;;9.70;99.90;;;;;;4991814;28;20153;-81
2023/03/31 01:51:56;;;;;;;18.02;7.95;;;9.70;99.90;;;;;;4978805;28;20878;-81
2023/03/31 01:54:50;;;;;;;13.23;7.90;;;9.70;99.90;;;;;;4978295;28;20069;-81
2023/03/31 01:57:21;;;;;;;15.65;8.77;;;9.70;99.90;;;;;;4975498;28;20521;-81
2023/03/31 02:00:01;;;;;;;17.48;7.82;;;9.70;99.90;;;;;;4988834;28;20050;-81
2023/03/31 02:02:43;;;;;;;15.20;8.20;;;9.60;99.90;;;;;;4990407;28;20517;-80
2023/03/31 02:05:15;;;;;;;17.30;8.45;;;9.60;99.90;;;;;;4976370;28;20409;-81
2023/03/31 02:08:12;;;;;;;17.42;8.27;;;9.50;99.90;;;;;;4991781;28;20580;-81
2023/03/31 02:10:43;;;;;;;15.85;7.60;;;9.50;99.90;;;;;;4982474;28;20109;-80
2023/03/31 02:13:13;;;;;;;15.13;8.02;;;9.50;99.90;;;;;;4979615;28;20031;-80
2023/03/31 02:15:46;;;;;;;17.70;8.35;;;9.50;99.90;;;;;;4994706;28;20047;-80
2023/03/31 02:18:19;;;;;;;13.30;7.47;;;9.50;99.90;;;;;;4974673;28;20486;-81
2023/03/31 02:20:48;;;;;;;13.48;7.35;;;9.50;99.90;;;;;;4975826;28;20323;-81
2023/03/31 02:23:21;;;;;;;13.95;7.32;;;9.50;99.90;;;;;;4974354;28;20122;-81
2023/03/31 02:25:52;;;;;;;16.45;8.07;;;9.40;99.90;;;;;;4983205;28;20065;-81
2023/03/31 02:28:25;;;;;;;19.60;8.45;;;9.40;99.90;;;;;;4976394;28;20509;-81
2023/03/31 02:31:22;;;;;;;13.80;7.68;;;9.40;99.90;;;;;;4976747;28;20084;-81
2023/03/31 02:33:50;;;;;;;17.58;7.88;;;9.40;99.90;;;;;;4977511;28;20046;-81
2023/03/31 02:36:18;;;;;;;18.20;9.38;;;9.30;99.90;;;;;;4976604;28;20054;-81
2023/03/31 02:38:51;;;;;;;24.20;10.63;;;9.30;99.90;;;;;;4978533;28;20690;-81
2023/03/31 02:41:18;;;;;;;21.40;10.18;;;9.30;99.90;;;;;;4992733;28;20505;-81
2023/03/31 02:43:45;;;;;;;19.30;8.35;;;9.20;99.90;;;;;;4978753;28;20081;-81
2023/03/31 02:46:12;;;;;;;19.02;8.73;;;9.20;99.90;;;;;;4976913;28;20141;-81
2023/03/31 02:48:44;;;;;;;24.48;8.57;;;9.20;99.90;;;;;;4974209;28;20157;-80
2023/03/31 02:51:27;;;;;;;15.07;7.00;;;9.20;99.90;;;;;;5006025;28;20058;-81
2023/03/31 02:54:13;;;;;;;12.80;6.35;;;9.20;99.90;;;;;;4976609;28;20050;-81
2023/03/31 02:57:11;;;;;;;12.63;7.18;;;9.10;99.90;;;;;;4975950;28;20177;-80
2023/03/31 03:00:08;;;;;;;13.48;7.05;;;9.10;99.90;;;;;;4976013;28;20030;-81
2023/03/31 03:03:00;;;;;;;13.73;6.90;;;9.10;99.90;;;;;;4980580;28;20058;-81
2023/03/31 03:05:53;;;;;;;14.35;6.25;;;9.10;99.90;;;;;;4975684;28;20082;-81
2023/03/31 03:08:54;;;;;;;12.10;6.13;;;9.10;99.90;;;;;;4981846;28;20057;-80
2023/03/31 03:11:58;;;;;;;10.25;5.63;;;9.10;99.90;;;;;;4970591;28;20050;-81
2023/03/31 03:14:42;;;;;;;13.10;6.53;;;9.00;99.90;;;;;;4971961;28;20141;-80
2023/03/31 03:17:27;;;;;;;12.05;6.05;;;9.10;99.90;;;;;;4990108;28;20033;-81
2023/03/31 03:19:59;;;;;;;11.52;5.50;;;9.00;99.90;;;;;;4971012;28;20106;-80
2023/03/31 03:22:26;;;;;;;12.00;5.38;;;9.00;99.90;;;;;;4990336;28;20070;-80
2023/03/31 03:24:54;;;;;;;13.10;7.35;;;8.90;99.90;;;;;;4974524;28;20046;-81
2023/03/31 03:27:21;;;;;;;15.63;7.40;;;9.00;99.90;;;;;;4975240;28;20046;-81
2023/03/31 03:29:49;;;;;;;12.70;7.35;;;8.90;99.90;;;;;;4992288;28;20857;-81
2023/03/31 03:32:16;;;;;;;18.55;8.52;;;8.90;99.90;;;;;;4975487;28;20046;-81
2023/03/31 03:34:43;;;;;;;13.25;6.53;;;8.90;99.90;;;;;;4989865;28;20042;-81
2023/03/31 03:37:11;;;;;;;13.30;6.30;;;8.90;99.90;;;;;;4975629;28;22592;-81
2023/03/31 03:39:38;;;;;;;11.95;6.25;;;10.30;99.90;;;;;;4993381;28;20042;-81
2023/03/31 03:42:07;;;;;;;12.43;5.40;;;8.80;99.90;;;;;;4990022;28;20042;-81
2023/03/31 03:44:34;;;;;;;12.52;5.68;;;8.80;99.90;;;;;;4991694;28;20149;-81
2023/03/31 03:47:01;;;;;;;12.48;6.13;;;8.80;99.90;;;;;;4974466;28;20046;-81
2023/03/31 03:49:28;;;;;;;11.25;5.72;;;8.70;99.90;;;;;;4981600;28;20050;-80
2023/03/31 03:51:55;;;;;;;9.77;5.55;;;8.70;99.90;;;;;;4990113;28;20046;-81
2023/03/31 03:54:22;;;;;;;11.98;5.43;;;8.70;99.90;;;;;;4991580;28;20066;-80
2023/03/31 03:56:50;;;;;;;9.32;5.10;;;8.70;99.90;;;;;;4994294;28;20039;-81
2023/03/31 03:59:17;;;;;;;9.48;5.55;;;8.70;99.90;;;;;;4990661;28;20046;-80
2023/03/31 04:01:44;;;;;;;9.35;4.72;;;8.70;99.90;;;;;;4975938;28;20109;-81
2023/03/31 04:04:11;;;;;;;11.65;5.50;;;8.70;99.90;;;;;;4977503;28;20046;-81
2023/03/31 04:06:38;;;;;;;9.73;5.28;;;8.60;99.90;;;;;;4975359;28;20054;-80
2023/03/31 04:09:06;;;;;;;11.88;5.03;;;8.60;99.90;;;;;;4992558;28;20104;-80
2023/03/31 04:11:33;;;;;;;11.35;5.25;;;8.60;99.90;;;;;;4981237;28;20054;-81
2023/03/31 04:14:00;;;;;;;11.85;5.85;;;8.60;99.90;;;;;;4974953;28;20105;-81
2023/03/31 04:16:27;;;;;;;9.82;4.85;;;8.50;99.90;;;;;;4975270;28;20121;-81
2023/03/31 04:18:57;;;;;;;10.57;5.65;;;8.50;99.90;;;;;;4992629;28;20054;-81
2023/03/31 04:21:25;;;;;;;11.65;5.32;;;8.40;99.90;;;;;;4976214;28;20088;-81
2023/03/31 04:24:06;;;;;;;9.88;4.85;;;8.50;99.90;;;;;;4989241;28;20077;-81
2023/03/31 04:26:43;;;;;;;10.55;5.18;;;8.50;99.90;;;;;;4988915;28;20121;-81
2023/03/31 04:29:11;;;;;;;8.70;4.38;;;8.50;99.90;;;;;;4997899;28;20061;-81
2023/03/31 04:31:42;;;;;;;11.25;4.95;;;8.40;99.90;;;;;;4981783;28;20053;-81
2023/03/31 04:34:14;;;;;;;11.10;4.30;;;8.40;99.90;;;;;;4978279;28;20078;-81
2023/03/31 04:36:48;;;;;;;12.65;4.85;;;8.50;99.90;;;;;;4980504;28;20046;-81
2023/03/31 04:39:17;;;;;;;10.00;4.72;;;8.40;99.90;;;;;;4989548;28;20050;-81
2023/03/31 04:41:44;;;;;;;9.68;4.65;;;8.40;99.90;;;;;;4980012;28;20046;-81
2023/03/31 04:44:12;;;;;;;9.13;4.82;;;8.40;99.90;;;;;;4995100;28;20058;-81
2023/03/31 04:46:39;;;;;;;9.63;5.13;;;8.40;99.90;;;;;;4980167;28;20057;-81
2023/03/31 04:49:06;;;;;;;10.20;4.82;;;8.30;99.90;;;;;;4980638;28;20046;-81
2023/03/31 04:51:33;;;;;;;10.02;5.60;;;8.30;99.90;;;;;;4992130;28;20046;-81
2023/03/31 04:54:00;;;;;;;11.13;5.05;;;8.30;99.90;;;;;;4994673;28;20042;-81
2023/03/31 04:56:27;;;;;;;9.95;5.28;;;8.30;99.90;;;;;;4983203;28;20042;-81
2023/03/31 04:58:54;;;;;;;12.70;6.22;;;8.30;99.90;;;;;;4978757;28;20051;-81
2023/03/31 05:01:21;;;;;;;11.70;5.25;;;8.30;99.90;;;;;;4975820;28;20054;-81
2023/03/31 05:03:48;;;;;;;11.18;5.57;;;8.30;99.90;;;;;;4977309;28;20057;-81
2023/03/31 05:06:16;;;;;;;12.90;6.20;;;8.30;99.90;;;;;;4973080;28;20059;-81
2023/03/31 05:08:44;;;;;;;14.98;7.22;;;8.30;99.90;;;;;;4978776;28;20055;-81
2023/03/31 05:11:11;;;;;;;11.63;6.25;;;8.30;99.90;;;;;;4976857;28;20084;-81
2023/03/31 05:13:38;;;;;;;12.85;6.22;;;8.30;99.90;;;;;;4980424;28;20073;-81
2023/03/31 05:16:07;;;;;;;17.13;7.20;;;8.30;99.90;;;;;;4979849;28;20038;-81
2023/03/31 05:18:35;;;;;;;15.75;8.10;;;8.30;99.90;;;;;;4976881;28;20050;-81
2023/03/31 05:21:12;;;;;;;16.83;8.63;;;8.30;99.90;;;;;;4981949;28;20043;-81
2023/03/31 05:23:39;;;;;;;15.70;7.68;;;8.30;99.90;;;;;;4981334;28;20046;-81
2023/03/31 05:26:07;;;;;;;12.82;6.82;;;8.40;99.90;;;;;;4973607;28;20030;-81
2023/03/31 05:28:35;;;;;;;15.25;6.72;;;8.40;99.90;;;;;;4975082;28;20418;-81
2023/03/31 05:31:04;;;;;;;11.82;6.22;;;8.50;99.90;;;;;;4979137;28;20042;-81
2023/03/31 05:33:31;;;;;;;11.10;5.78;;;8.50;99.90;;;;;;4980427;28;20051;-81
2023/03/31 05:35:59;;;;;;;12.15;5.75;;;8.50;99.90;;;;;;4984107;28;20148;-81
2023/03/31 05:38:30;;;;;;;11.88;6.38;;;8.50;99.90;;;;;;4975492;28;20051;-81
2023/03/31 05:40:57;;;;;;;10.68;5.85;;;8.60;99.90;;;;;;4991713;28;20069;-81
2023/03/31 05:43:24;;;;;;;11.43;6.38;;;8.60;99.90;;;;;;4972795;28;20070;-81
2023/03/31 05:45:51;;;;;;;11.20;6.65;;;8.70;99.90;;;;;;4990594;28;20972;-81
2023/03/31 05:48:20;;;;;;;14.65;7.00;;;8.70;99.90;;;;;;4988351;28;20046;-81
2023/03/31 05:50:47;;;;;;;11.95;6.07;;;8.80;99.90;;;;;;4987531;28;20153;-80
2023/03/31 05:53:14;;;;;;;11.73;6.07;;;8.80;99.90;;;;;;4969593;28;20080;-80
2023/03/31 05:55:41;;;;;;;13.15;7.05;;;9.00;99.90;;;;;;4965772;28;22561;-79
2023/03/31 05:58:08;;;;;;;11.52;6.63;;;9.10;99.90;;;;;;4921141;28;22829;-79
2023/03/31 06:00:36;;;;;;;13.48;7.13;;;9.10;99.90;;;;;;4948416;28;21367;-81
2023/03/31 06:03:06;;;;;;;13.13;6.95;;;9.20;99.90;;;;;;4939249;28;20810;-81
2023/03/31 06:05:34;;;;;;;16.67;7.80;;;9.30;99.90;;;;;;4941052;28;20054;-81
2023/03/31 06:08:02;;;;;;;15.20;7.05;;;9.40;99.90;;;;;;4936355;28;22481;-81
2023/03/31 06:10:29;;;;;;;13.75;7.63;;;9.60;99.90;;;;;;4931461;28;20381;-81
2023/03/31 06:12:56;;;;;;;14.57;7.65;;;9.70;99.90;;;;;;4937985;28;20058;-81
2023/03/31 06:15:23;;;;;;;15.10;7.30;;;9.70;99.90;;;;;;4940958;28;20057;-81
2023/03/31 06:17:51;;;;;;;16.02;7.75;;;9.80;99.90;;;;;;4934092;28;20134;-80
2023/03/31 06:20:18;;;;;;;12.27;6.18;;;9.80;99.90;;;;;;4952198;28;20078;-81
2023/03/31 06:22:54;;;;;;;12.13;6.50;;;9.90;99.90;;;;;;4957479;28;20118;-82
2023/03/31 06:25:21;;;;;;;13.45;6.88;;;10.10;99.90;;;;;;4953596;28;20072;-81
2023/03/31 06:27:49;;;;;;;30.23;13.25;;;10.20;99.90;;;;;;4954440;28;20061;-81
2023/03/31 06:30:16;;;;;;;30.20;13.68;;;10.30;99.90;;;;;;4950294;28;20069;-81
2023/03/31 06:32:43;;;;;;;13.57;7.47;;;10.50;99.90;;;;;;4933529;28;20058;-79
2023/03/31 06:35:10;;;;;;;12.77;6.97;;;10.60;99.90;;;;;;4941452;28;20054;-79
2023/03/31 06:37:37;;;;;;;12.25;7.55;;;10.80;99.90;;;;;;4940738;28;20589;-81
2023/03/31 06:40:05;;;;;;;17.85;8.98;;;10.80;99.90;;;;;;4942458;28;20042;-81
2023/03/31 06:42:33;;;;;;;15.70;8.02;;;11.00;99.90;;;;;;4937404;28;20053;-81
2023/03/31 06:45:00;;;;;;;15.60;7.50;;;11.10;99.90;;;;;;4951859;28;20478;-80
2023/03/31 06:47:28;;;;;;;9.77;6.25;;;11.20;99.90;;;;;;4925523;28;20054;-80
2023/03/31 06:49:55;;;;;;;14.45;6.47;;;11.30;99.90;;;;;;4939378;28;20046;-80
2023/03/31 06:52:22;;;;;;;9.95;6.22;;;11.40;99.90;;;;;;4950870;28;20042;-80
2023/03/31 06:54:49;;;;;;;14.18;6.70;;;11.60;99.90;;;;;;4914188;28;22256;-80
2023/03/31 06:57:16;;;;;;;11.90;5.70;;;11.60;99.90;;;;;;4949912;28;20054;-80
2023/03/31 06:59:43;;;;;;;11.27;6.55;;;11.70;99.90;;;;;;4935300;28;20123;-79
2023/03/31 07:02:10;;;;;;;10.88;6.32;;;11.80;99.90;;;;;;4959654;28;20050;-77
2023/03/31 07:04:37;;;;;;;11.23;5.90;;;11.80;99.90;;;;;;4930268;28;20184;-80
2023/03/31 07:07:04;;;;;;;17.60;11.57;;;11.90;99.90;;;;;;4974327;28;20057;-81
2023/03/31 07:09:31;;;;;;;12.15;6.20;;;12.00;99.90;;;;;;4946179;28;20077;-80
2023/03/31 07:11:59;;;;;;;15.73;9.50;;;12.10;99.90;;;;;;4950911;28;20053;-80
2023/03/31 07:14:26;;;;;;;10.52;6.40;;;12.20;99.90;;;;;;4926112;28;20050;-80
2023/03/31 07:16:53;;;;;;;10.50;6.38;;;12.30;99.90;;;;;;4936089;28;20054;-81
2023/03/31 07:19:20;;;;;;;11.43;6.95;;;12.40;99.90;;;;;;4931182;28;20050;-81
2023/03/31 07:21:48;;;;;;;9.40;5.13;;;12.40;99.90;;;;;;4937164;28;20062;-80
2023/03/31 07:24:16;;;;;;;15.25;6.80;;;12.60;99.90;;;;;;4928510;28;20436;-80
2023/03/31 07:26:43;;;;;;;12.23;6.25;;;12.70;99.90;;;;;;4943863;28;20042;-79
2023/03/31 07:29:10;;;;;;;9.07;5.78;;;12.70;99.90;;;;;;4944120;28;20058;-80
2023/03/31 07:31:37;;;;;;;11.45;6.38;;;12.90;99.90;;;;;;4925039;28;20050;-79
2023/03/31 07:34:05;;;;;;;10.43;5.63;;;12.90;99.90;;;;;;4941740;28;20077;-78
2023/03/31 07:36:32;;;;;;;12.02;5.80;;;12.80;99.90;;;;;;4936124;28;20100;-78
2023/03/31 07:38:59;;;;;;;9.57;5.30;;;12.80;99.90;;;;;;4927918;28;20061;-81
2023/03/31 07:41:26;;;;;;;12.77;5.72;;;13.00;99.90;;;;;;4949774;28;20391;-80
2023/03/31 07:43:53;;;;;;;9.63;5.30;;;13.10;99.90;;;;;;4924991;28;20856;-80
2023/03/31 07:46:23;;;;;;;10.30;5.50;;;13.20;99.90;;;;;;4924075;28;20072;-80
2023/03/31 07:48:52;;;;;;;11.75;5.30;;;13.30;99.90;;;;;;4920687;28;20058;-79
2023/03/31 07:51:22;;;;;;;9.73;4.88;;;13.40;99.90;;;;;;4946762;28;20049;-80
2023/03/31 07:53:51;;;;;;;9.80;5.18;;;13.40;99.90;;;;;;4925496;28;20695;-81
2023/03/31 07:56:21;;;;;;;11.45;6.15;;;13.50;99.90;;;;;;4922517;28;20449;-81
2023/03/31 07:58:50;;;;;;;10.18;5.40;;;13.60;99.90;;;;;;4964569;28;20056;-79
2023/03/31 08:01:20;;;;;;;8.55;4.30;;;13.80;99.90;;;;;;4948797;28;20081;-79
2023/03/31 08:03:47;;;;;;;9.38;4.63;;;13.80;99.90;;;;;;4930588;28;20501;-78
2023/03/31 08:06:20;;;;;;;8.02;4.28;;;13.90;99.90;;;;;;4953900;28;20046;-81
2023/03/31 08:08:49;;;;;;;7.63;4.25;;;13.90;99.90;;;;;;4957950;28;20196;-81
2023/03/31 08:11:17;;;;;;;7.38;4.25;;;14.10;99.90;;;;;;4929361;28;22718;-80
2023/03/31 08:13:44;;;;;;;6.13;4.07;;;14.10;99.90;;;;;;4948084;28;20050;-78
2023/03/31 08:16:11;;;;;;;7.47;4.15;;;14.20;99.90;;;;;;4933015;28;20057;-79
2023/03/31 08:18:38;;;;;;;14.50;6.45;;;14.10;99.90;;;;;;4944490;28;20042;-79
2023/03/31 08:21:06;;;;;;;109.68;43.92;;;14.30;99.90;;;;;;4950182;28;20845;-80
2023/03/31 08:23:34;;;;;;;9.85;5.38;;;14.60;99.90;;;;;;4941580;28;20065;-79
2023/03/31 08:26:17;;;;;;;5.13;3.33;;;14.60;99.90;;;;;;4930993;28;20050;-79
2023/03/31 08:28:47;;;;;;;7.25;3.83;;;14.60;99.90;;;;;;4918423;28;20520;-80
2023/03/31 08:31:17;;;;;;;6.82;3.63;;;14.70;99.90;;;;;;4935511;28;20050;-79
2023/03/31 08:33:46;;;;;;;5.28;3.10;;;14.80;99.90;;;;;;4959672;28;20054;-80
2023/03/31 08:36:14;;;;;;;5.68;2.50;;;14.90;99.90;;;;;;4958986;28;20705;-80
2023/03/31 08:38:46;;;;;;;5.97;2.90;;;15.00;99.90;;;;;;4941453;28;20046;-78
2023/03/31 08:41:32;;;;;;;4.28;3.17;;;15.00;99.90;;;;;;4941705;28;20038;-77
2023/03/31 08:44:07;;;;;;;4.75;2.90;;;15.10;99.90;;;;;;4943515;28;20065;-79
2023/03/31 08:46:35;;;;;;;5.75;2.83;;;15.10;99.90;;;;;;4944152;28;20062;-80
2023/03/31 08:49:05;;;;;;;5.78;3.20;;;15.30;99.90;;;;;;4955722;28;20064;-79
2023/03/31 08:51:40;;;;;;;5.50;3.00;;;15.40;99.90;;;;;;4952059;28;20081;-78
2023/03/31 08:54:43;;;;;;;5.85;3.00;;;15.50;99.90;;;;;;4944619;28;20043;-79
2023/03/31 08:57:25;;;;;;;5.00;3.05;;;16.60;99.90;;;;;;4930923;28;20632;-79
2023/03/31 08:59:57;;;;;;;7.25;3.75;;;15.40;99.90;;;;;;4949973;28;20062;-77
2023/03/31 09:02:30;;;;;;;5.28;2.88;;;15.50;99.90;;;;;;4950715;28;20049;-80
2023/03/31 09:05:26;;;;;;;5.45;2.70;;;15.60;99.90;;;;;;4925943;28;20149;-81
2023/03/31 09:08:01;;;;;;;4.65;2.53;;;15.60;99.90;;;;;;4931241;28;20445;-79
2023/03/31 09:10:41;;;;;;;3.90;2.47;;;15.70;99.90;;;;;;4955046;28;22370;-79
2023/03/31 09:13:24;;;;;;;4.82;3.38;;;16.00;99.90;;;;;;4929374;28;20055;-79
2023/03/31 09:16:03;;;;;;;5.03;2.10;;;15.90;99.90;;;;;;4931178;28;20587;-79
2023/03/31 09:18:35;;;;;;;7.38;2.00;;;15.90;99.70;;;;;;4948625;28;20038;-79
2023/03/31 09:21:26;;;;;;;5.65;2.03;;;16.00;99.10;;;;;;4942594;28;20049;-77
2023/03/31 09:24:02;;;;;;;3.55;2.33;;;16.00;96.80;;;;;;4944494;28;20085;-80
2023/03/31 09:26:52;;;;;;;6.15;3.30;;;16.00;97.30;;;;;;4932139;28;20053;-79
2023/03/31 09:29:47;;;;;;;5.50;2.33;;;16.20;99.90;;;;;;4926003;28;20631;-78
2023/03/31 09:32:22;;;;;;;4.38;2.72;;;16.20;99.80;;;;;;4943836;28;20090;-77
2023/03/31 09:34:52;;;;;;;3.97;2.55;;;16.30;99.90;;;;;;4941131;28;20785;-79
2023/03/31 09:37:20;;;;;;;7.38;2.78;;;16.40;97.80;;;;;;4926060;28;20094;-80
2023/03/31 09:39:48;;;;;;;4.97;2.45;;;16.40;99.00;;;;;;4943164;28;22202;-80
2023/03/31 09:42:18;;;;;;;6.63;3.25;;;16.60;98.60;;;;;;4934984;28;20047;-79
2023/03/31 09:44:48;;;;;;;5.45;2.92;;;16.80;98.40;;;;;;4922250;28;20110;-80
2023/03/31 09:47:26;;;;;;;5.10;2.42;;;16.80;99.10;;;;;;4929528;28;20050;-78
2023/03/31 09:49:54;;;;;;;4.82;2.55;;;16.70;97.30;;;;;;4946114;28;20058;-79
2023/03/31 09:52:30;;;;;;;3.20;1.98;;;16.70;96.00;;;;;;4933672;28;20054;-78
2023/03/31 09:55:05;;;;;;;5.18;2.25;;;16.70;94.80;;;;;;4931391;28;20085;-77
2023/03/31 09:57:38;;;;;;;3.75;1.80;;;16.90;95.30;;;;;;4942196;28;20145;-78
2023/03/31 10:00:15;;;;;;;6.30;2.50;;;16.80;93.70;;;;;;4938310;28;20082;-79
2023/03/31 10:02:52;;;;;;;4.32;2.08;;;16.90;94.90;;;;;;4947213;28;20673;-80
2023/03/31 10:05:28;;;;;;;4.30;2.47;;;17.00;95.10;;;;;;4942445;28;20053;-79
2023/03/31 10:08:48;;;;;;;5.10;2.03;;;17.00;94.90;;;;;;4960878;28;20167;-79
2023/03/31 10:11:16;;;;;;;4.28;1.88;;;17.30;94.60;;;;;;4928335;28;20050;-78
2023/03/31 10:13:58;;;;;;;6.97;2.20;;;17.30;94.10;;;;;;4937128;28;20034;-80
2023/03/31 10:16:28;;;;;;;2.55;1.83;;;17.00;92.90;;;;;;4943854;28;20050;-77
2023/03/31 10:19:16;;;;;;;5.50;2.22;;;17.00;93.50;;;;;;4959974;28;20389;-79
2023/03/31 10:21:47;;;;;;;3.92;1.88;;;17.00;93.80;;;;;;4922384;28;20171;-78
2023/03/31 10:24:18;;;;;;;3.42;2.17;;;16.90;92.70;;;;;;4953980;28;20091;-78
2023/03/31 10:26:51;;;;;;;3.40;1.33;;;17.20;93.40;;;;;;4950288;28;20149;-77
2023/03/31 10:29:31;;;;;;;2.35;1.55;;;17.40;92.10;;;;;;4944821;28;20134;-78
2023/03/31 10:32:22;;;;;;;3.20;1.52;;;17.30;91.10;;;;;;4931597;28;20050;-78
2023/03/31 10:34:49;;;;;;;2.58;1.75;;;17.00;91.50;;;;;;4937330;28;20061;-78
2023/03/31 10:37:21;;;;;;;2.80;1.70;;;16.80;92.50;;;;;;4941182;28;20147;-79
2023/03/31 10:40:00;;;;;;;4.60;1.65;;;16.80;93.30;;;;;;4941832;28;20046;-79
2023/03/31 10:42:27;;;;;;;4.88;1.77;;;16.90;93.20;;;;;;4945880;28;20073;-80
2023/03/31 10:45:22;;;;;;;4.47;1.50;;;16.70;92.90;;;;;;4955659;28;20053;-80
2023/03/31 10:48:03;;;;;;;4.13;2.10;;;17.00;93.50;;;;;;4946116;28;20077;-78
2023/03/31 10:50:34;;;;;;;5.40;2.28;;;17.00;93.30;;;;;;4925027;28;20092;-80
2023/03/31 10:53:11;;;;;;;4.00;2.25;;;17.10;94.50;;;;;;4940237;28;20608;-79
2023/03/31 10:55:57;;;;;;;3.17;1.83;;;16.90;94.30;;;;;;4935703;28;20061;-77
2023/03/31 10:58:49;;;;;;;4.97;1.58;;;16.80;93.80;;;;;;4916688;28;20053;-79
2023/03/31 11:02:08;;;;;;;5.65;1.70;;;16.90;94.40;;;;;;4953667;28;20042;-78
2023/03/31 11:04:47;;;;;;;5.40;1.80;;;17.30;93.60;;;;;;4919402;28;20108;-79
2023/03/31 11:07:42;;;;;;;2.90;1.98;;;17.60;92.70;;;;;;4940191;28;20137;-76
2023/03/31 11:10:32;;;;;;;3.20;1.63;;;17.60;91.20;;;;;;4946823;28;20038;-78
2023/03/31 11:13:05;;;;;;;4.72;2.10;;;17.70;92.90;;;;;;4916626;28;20054;-79
2023/03/31 11:15:43;;;;;;;4.75;1.92;;;17.90;93.10;;;;;;4931165;28;20406;-79
2023/03/31 11:18:28;;;;;;;4.68;2.30;;;18.20;92.60;;;;;;4973675;28;20453;-77
2023/03/31 11:21:08;;;;;;;3.35;1.80;;;18.20;91.30;;;;;;4927324;28;22217;-78
2023/03/31 11:23:45;;;;;;;4.05;1.80;;;18.40;91.30;;;;;;4933389;28;20084;-79
2023/03/31 11:26:16;;;;;;;3.45;2.20;;;18.40;89.50;;;;;;4937526;28;20058;-79
2023/03/31 11:29:07;;;;;;;3.75;2.00;;;18.50;90.40;;;;;;4962002;28;20077;-80
2023/03/31 11:32:08;;;;;;;2.38;1.50;;;18.50;88.80;;;;;;4931273;28;20046;-78
2023/03/31 11:34:49;;;;;;;3.40;1.60;;;18.00;89.30;;;;;;4922935;28;20188;-77
2023/03/31 11:37:35;;;;;;;2.97;1.58;;;17.80;90.60;;;;;;4923811;28;20608;-77
2023/03/31 11:40:21;;;;;;;4.22;2.33;;;17.50;91.30;;;;;;4937820;28;20054;-77
2023/03/31 11:42:56;;;;;;;5.18;2.33;;;17.60;91.90;;;;;;4942085;28;20054;-76
2023/03/31 11:46:04;;;;;;;5.03;1.60;;;17.80;91.60;;;;;;4924444;28;20062;-77
2023/03/31 11:48:45;;;;;;;3.05;1.50;;;17.70;90.50;;;;;;4899781;28;20551;-79
2023/03/31 11:51:41;;;;;;;5.40;1.70;;;17.80;91.00;;;;;;4922237;28;20050;-77
2023/03/31 11:54:30;;;;;;;5.05;1.70;;;17.90;90.30;;;;;;4926879;28;22616;-78
2023/03/31 11:57:06;;;;;;;2.13;0.82;;;18.10;90.60;;;;;;4934280;28;20508;-78
2023/03/31 11:59:34;;;;;;;2.10;1.30;;;18.10;85.70;;;;;;4928097;28;20050;-76
2023/03/31 12:02:42;;;;;;;3.38;1.45;;;18.10;87.00;;;;;;4933270;28;20046;-77
2023/03/31 12:05:12;;;;;;;5.55;1.35;;;18.00;88.10;;;;;;4921700;28;20058;-78
2023/03/31 12:08:14;;;;;;;3.78;1.63;;;18.00;87.70;;;;;;4921243;28;20051;-77
2023/03/31 12:10:53;;;;;;;4.30;1.67;;;18.20;86.20;;;;;;4911948;28;20955;-79
2023/03/31 12:13:43;;;;;;;4.18;1.42;;;18.40;88.60;;;;;;4929555;28;20058;-78
2023/03/31 12:16:13;;;;;;;3.00;1.77;;;18.90;86.70;;;;;;4922868;28;20054;-78
2023/03/31 12:19:06;;;;;;;4.60;1.45;;;18.90;86.70;;;;;;4923731;28;20735;-77
2023/03/31 12:21:36;;;;;;;2.97;1.63;;;18.70;88.90;;;;;;4952048;28;20058;-76
2023/03/31 12:24:03;;;;;;;4.82;1.85;;;18.40;87.30;;;;;;4925557;28;20203;-77
2023/03/31 12:26:48;;;;;;;2.90;0.98;;;18.30;86.90;;;;;;4923311;28;20109;-76
2023/03/31 12:29:31;;;;;;;4.82;1.50;;;18.20;85.80;;;;;;4937577;28;20051;-75
2023/03/31 12:32:03;;;;;;;3.03;1.48;;;18.30;86.30;;;;;;4931119;28;20197;-76
2023/03/31 12:34:31;;;;;;;;;;;18.40;86.60;;;;;;4938126;28;20188;-78
2023/03/31 12:37:42;;;;;;;3.25;1.17;;;18.60;87.00;;;;;;4932442;28;20163;-79
2023/03/31 12:40:44;;;;;;;3.28;1.10;;;19.00;85.60;;;;;;4947388;28;20054;-77
2023/03/31 12:43:30;;;;;;;3.92;1.40;;;18.80;85.70;;;;;;4927030;28;20054;-79
2023/03/31 12:46:06;;;;;;;3.40;1.25;;;18.60;86.00;;;;;;4959715;28;20056;-79
2023/03/31 12:48:51;;;;;;;4.55;1.85;;;18.50;86.10;;;;;;4952194;28;20054;-77
2023/03/31 12:51:33;;;;;;;4.75;2.00;;;18.50;87.10;;;;;;4937595;28;20058;-78
2023/03/31 12:54:32;;;;;;;3.90;1.60;;;18.60;85.80;;;;;;4955044;28;20054;-79
2023/03/31 12:57:02;;;;;;;3.92;1.50;;;18.70;85.00;;;;;;4943824;28;20050;-77
2023/03/31 12:59:35;;;;;;;5.50;1.98;;;19.00;84.50;;;;;;4955292;28;20061;-79
2023/03/31 13:02:08;;;;;;;3.92;1.50;;;19.20;82.60;;;;;;4945232;28;20046;-78
2023/03/31 13:04:37;;;;;;;4.32;2.10;;;18.80;82.30;;;;;;4921210;28;20051;-79
2023/03/31 13:07:12;;;;;;;5.43;1.20;;;19.00;84.90;;;;;;4961310;28;20042;-79
2023/03/31 13:10:20;;;;;;;4.30;1.48;;;19.40;84.20;;;;;;4938199;28;20042;-79
2023/03/31 13:13:14;;;;;;;3.10;1.55;;;19.80;82.20;;;;;;4933746;28;20049;-78
2023/03/31 13:15:56;;;;;;;3.28;1.33;;;19.30;82.30;;;;;;4939023;28;20748;-78
2023/03/31 13:18:24;;;;;;;3.85;2.17;;;19.00;85.40;;;;;;4949811;28;20629;-78
2023/03/31 13:21:00;;;;;;;3.58;1.38;;;18.80;84.30;;;;;;4939756;28;20141;-78
2023/03/31 13:23:36;;;;;;;3.47;1.05;;;18.50;83.40;;;;;;4941844;28;20054;-79